MV Iyanough — WDD4527 — position and weather

sailwx.info

Track history (hours):
 
Tides and Currents Weather Stations Pressure Air Temp Water Temp Dewpoint Dewpoint Depression Visibility Wind Speed Wind Dir Waves Ship Positions

MV Iyanough

Owner: WOODS HOLE, MARTHA'S VINEYARD AND NANTUCKET STEAMSHIP AUTHORITY, WOODS HOLE, MA. More information available from US FCC via Universal Licensing System and Coast Guard Vessel Documentation Center.

Last reported at 2017-Oct-15 01:57 UTC. Time now 2017-Oct-17 06:21 UTC.
Position N 41°39' W 070°17'.

Length 47 m; draft 2.4 m.

Type: Ship. MMSI: 367145870.

Date/timePositionNaut miles runAvg speedWind from/ knotsBaromVisibWave heightAir tempDewpointWater temp
2017-Oct-15 01:57N 41°39' W 070°17'1 3.2
2017-Oct-15 01:30N 41°38' W 070°16'4 2.2
2017-Oct-14 23:48N 41°34' W 070°16'517.4
2017-Oct-14 23:30N 41°39' W 070°17'1 2.6
2017-Oct-14 23:00N 41°38' W 070°16'3 1.6
2017-Oct-14 21:16N 41°35' W 070°17'415.1
2017-Oct-14 21:00N 41°39' W 070°17'0 0.1
2017-Oct-14 20:31N 41°39' W 070°17'5 2.3
2017-Oct-14 18:17N 41°34' W 070°16'517.4
2017-Oct-14 18:00N 41°39' W 070°17'0 0.1
2017-Oct-14 17:30N 41°39' W 070°17'6 2.7
2017-Oct-14 15:21N 41°33' W 070°16'616.2
2017-Oct-14 15:00N 41°39' W 070°17'0 0.0
2017-Oct-14 14:30N 41°39' W 070°17'5 2.5
2017-Oct-14 12:38N 41°34' W 070°17'327.3
2017-Oct-14 12:30N 41°38' W 070°16'1 2.7
2017-Oct-14 11:59N 41°39' W 070°17'  
2017-Oct-11 23:07N 41°38' W 070°16'218.7
2017-Oct-11 23:00N 41°37' W 070°17'2 0.5
2017-Oct-11 18:19N 41°35' W 070°16'414.9
2017-Oct-11 18:00N 41°39' W 070°17'0 0.1
2017-Oct-11 17:30N 41°39' W 070°17'7 0.4
2017-Oct-10 23:55N 41°32' W 070°16'717.0
2017-Oct-10 23:30N 41°39' W 070°17'3 5.5
2017-Oct-10 23:01N 41°36' W 070°17'3 1.7
2017-Oct-10 21:21N 41°34' W 070°16'515.4
2017-Oct-10 21:01N 41°39' W 070°17'0 0.0
2017-Oct-10 20:30N 41°39' W 070°17'5 2.2
2017-Oct-10 18:22N 41°34' W 070°16'513.2
2017-Oct-10 18:00N 41°39' W 070°17'0 0.0
2017-Oct-10 17:31N 41°39' W 070°17'5 2.3
2017-Oct-10 15:21N 41°34' W 070°16'514.6
2017-Oct-10 15:00N 41°39' W 070°17'5 2.1
2017-Oct-10 12:35N 41°34' W 070°16'333.4
2017-Oct-10 12:30N 41°37' W 070°18'2 4.8
2017-Oct-10 12:00N 41°39' W 070°17'0 0.0
2017-Oct-10 11:30N 41°39' W 070°17'0 0.0
2017-Oct-10 11:00N 41°39' W 070°17'0 0.0
2017-Oct-10 10:30N 41°39' W 070°17'0 0.0
2017-Oct-10 10:00N 41°39' W 070°17'0 0.0
2017-Oct-10 03:44N 41°39' W 070°17'0 0.0
2017-Oct-10 03:30N 41°39' W 070°17'0 0.0
2017-Oct-10 03:00N 41°39' W 070°17'0 0.0
2017-Oct-10 02:30N 41°39' W 070°17'0 0.0
2017-Oct-10 01:59N 41°39' W 070°17'2 3.8
2017-Oct-10 01:31N 41°37' W 070°17'2 1.5
2017-Oct-09 23:49N 41°35' W 070°17'413.8
2017-Oct-09 23:30N 41°39' W 070°17'2 3.6
2017-Oct-09 23:00N 41°37' W 070°17'3 1.8
2017-Oct-09 21:21N 41°34' W 070°17'514.0
2017-Oct-09 21:00N 41°39' W 070°17'0 0.0
2017-Oct-09 20:30N 41°39' W 070°17'5 2.3
2017-Oct-09 18:21N 41°34' W 070°16'514.0
2017-Oct-09 17:59N 41°39' W 070°17'0 0.0
2017-Oct-09 17:30N 41°39' W 070°17'4 1.8
2017-Oct-09 15:17N 41°35' W 070°17'414.1
2017-Oct-09 15:00N 41°39' W 070°17'0 0.0
2017-Oct-09 14:30N 41°39' W 070°17'6 3.0
2017-Oct-09 12:35N 41°33' W 070°16'233.6
2017-Oct-09 12:30N 41°36' W 070°17'3 6.8
2017-Oct-09 12:00N 41°39' W 070°17'0 0.0
2017-Oct-09 11:30N 41°39' W 070°17'0 0.0
2017-Oct-09 11:00N 41°39' W 070°17'0 0.0
2017-Oct-09 10:30N 41°39' W 070°17'0 0.0
2017-Oct-08 03:58N 41°39' W 070°17'0 0.0
2017-Oct-08 03:30N 41°39' W 070°17'0 0.0
2017-Oct-08 03:00N 41°39' W 070°17'0 0.0
2017-Oct-08 02:30N 41°39' W 070°17'0 0.0
2017-Oct-08 02:00N 41°39' W 070°17'2 4.7
2017-Oct-08 01:31N 41°37' W 070°17'4 2.1
2017-Oct-07 23:51N 41°33' W 070°16'616.1
2017-Oct-07 23:30N 41°39' W 070°17'3 6.3
2017-Oct-07 23:00N 41°36' W 070°17'2 1.3
2017-Oct-07 21:22N 41°34' W 070°16'514.2
2017-Oct-07 21:01N 41°39' W 070°17'0 0.1
2017-Oct-07 20:30N 41°39' W 070°17'4 2.0
2017-Oct-07 18:21N 41°35' W 070°17'412.7
2017-Oct-07 18:00N 41°39' W 070°17'0 0.1
2017-Oct-07 17:30N 41°39' W 070°17'5 2.3
2017-Oct-07 15:26N 41°34' W 070°17'511.3
2017-Oct-07 15:01N 41°39' W 070°17'1 1.0
2017-Oct-07 14:31N 41°39' W 070°16'5 2.6
2017-Oct-07 12:38N 41°34' W 070°16'428.1
2017-Oct-07 12:31N 41°37' W 070°17'2 3.2
2017-Oct-07 12:00N 41°39' W 070°17'  
2017-Oct-05 02:27N 41°39' W 070°17'0 0.0
2017-Oct-05 02:00N 41°39' W 070°17'  
Track history (hours):
 
Tides and Currents Weather Stations Pressure Air Temp Water Temp Dewpoint Dewpoint Depression Visibility Wind Speed Wind Dir Waves Ship Positions

MV Iyanough

Owner: WOODS HOLE, MARTHA'S VINEYARD AND NANTUCKET STEAMSHIP AUTHORITY, WOODS HOLE, MA. More information available from US FCC via Universal Licensing System and Coast Guard Vessel Documentation Center.

Last reported at 2017-Oct-15 01:57 UTC. Time now 2017-Oct-17 06:21 UTC.
Position N 41°39' W 070°17'.

Length 47 m; draft 2.4 m.

Type: Ship. MMSI: 367145870.

Date/timePositionNaut miles runAvg speedWind from/ knotsBaromVisibWave heightAir tempDewpointWater temp
2017-Oct-15 01:57N 41°39' W 070°17'1 3.2
2017-Oct-15 01:30N 41°38' W 070°16'4 2.2
2017-Oct-14 23:48N 41°34' W 070°16'517.4
2017-Oct-14 23:30N 41°39' W 070°17'1 2.6
2017-Oct-14 23:00N 41°38' W 070°16'3 1.6
2017-Oct-14 21:16N 41°35' W 070°17'415.1
2017-Oct-14 21:00N 41°39' W 070°17'0 0.1
2017-Oct-14 20:31N 41°39' W 070°17'5 2.3
2017-Oct-14 18:17N 41°34' W 070°16'517.4
2017-Oct-14 18:00N 41°39' W 070°17'0 0.1
2017-Oct-14 17:30N 41°39' W 070°17'6 2.7
2017-Oct-14 15:21N 41°33' W 070°16'616.2
2017-Oct-14 15:00N 41°39' W 070°17'0 0.0
2017-Oct-14 14:30N 41°39' W 070°17'5 2.5
2017-Oct-14 12:38N 41°34' W 070°17'327.3
2017-Oct-14 12:30N 41°38' W 070°16'1 2.7
2017-Oct-14 11:59N 41°39' W 070°17'  
2017-Oct-11 23:07N 41°38' W 070°16'218.7
2017-Oct-11 23:00N 41°37' W 070°17'2 0.5
2017-Oct-11 18:19N 41°35' W 070°16'414.9
2017-Oct-11 18:00N 41°39' W 070°17'0 0.1
2017-Oct-11 17:30N 41°39' W 070°17'7 0.4
2017-Oct-10 23:55N 41°32' W 070°16'717.0
2017-Oct-10 23:30N 41°39' W 070°17'3 5.5
2017-Oct-10 23:01N 41°36' W 070°17'3 1.7
2017-Oct-10 21:21N 41°34' W 070°16'515.4
2017-Oct-10 21:01N 41°39' W 070°17'0 0.0
2017-Oct-10 20:30N 41°39' W 070°17'5 2.2
2017-Oct-10 18:22N 41°34' W 070°16'513.2
2017-Oct-10 18:00N 41°39' W 070°17'0 0.0
2017-Oct-10 17:31N 41°39' W 070°17'5 2.3
2017-Oct-10 15:21N 41°34' W 070°16'514.6
2017-Oct-10 15:00N 41°39' W 070°17'5 2.1
2017-Oct-10 12:35N 41°34' W 070°16'333.4
2017-Oct-10 12:30N 41°37' W 070°18'2 4.8
2017-Oct-10 12:00N 41°39' W 070°17'0 0.0
2017-Oct-10 11:30N 41°39' W 070°17'0 0.0
2017-Oct-10 11:00N 41°39' W 070°17'0 0.0
2017-Oct-10 10:30N 41°39' W 070°17'0 0.0
2017-Oct-10 10:00N 41°39' W 070°17'0 0.0
2017-Oct-10 03:44N 41°39' W 070°17'0 0.0
2017-Oct-10 03:30N 41°39' W 070°17'0 0.0
2017-Oct-10 03:00N 41°39' W 070°17'0 0.0
2017-Oct-10 02:30N 41°39' W 070°17'0 0.0
2017-Oct-10 01:59N 41°39' W 070°17'2 3.8
2017-Oct-10 01:31N 41°37' W 070°17'2 1.5
2017-Oct-09 23:49N 41°35' W 070°17'413.8
2017-Oct-09 23:30N 41°39' W 070°17'2 3.6
2017-Oct-09 23:00N 41°37' W 070°17'3 1.8
2017-Oct-09 21:21N 41°34' W 070°17'514.0
2017-Oct-09 21:00N 41°39' W 070°17'0 0.0
2017-Oct-09 20:30N 41°39' W 070°17'5 2.3
2017-Oct-09 18:21N 41°34' W 070°16'514.0
2017-Oct-09 17:59N 41°39' W 070°17'0 0.0
2017-Oct-09 17:30N 41°39' W 070°17'4 1.8
2017-Oct-09 15:17N 41°35' W 070°17'414.1
2017-Oct-09 15:00N 41°39' W 070°17'0 0.0
2017-Oct-09 14:30N 41°39' W 070°17'6 3.0
2017-Oct-09 12:35N 41°33' W 070°16'233.6
2017-Oct-09 12:30N 41°36' W 070°17'3 6.8
2017-Oct-09 12:00N 41°39' W 070°17'0 0.0
2017-Oct-09 11:30N 41°39' W 070°17'0 0.0
2017-Oct-09 11:00N 41°39' W 070°17'0 0.0
2017-Oct-09 10:30N 41°39' W 070°17'0 0.0
2017-Oct-08 03:58N 41°39' W 070°17'0 0.0
2017-Oct-08 03:30N 41°39' W 070°17'0 0.0
2017-Oct-08 03:00N 41°39' W 070°17'0 0.0
2017-Oct-08 02:30N 41°39' W 070°17'0 0.0
2017-Oct-08 02:00N 41°39' W 070°17'2 4.7
2017-Oct-08 01:31N 41°37' W 070°17'4 2.1
2017-Oct-07 23:51N 41°33' W 070°16'616.1
2017-Oct-07 23:30N 41°39' W 070°17'3 6.3
2017-Oct-07 23:00N 41°36' W 070°17'2 1.3
2017-Oct-07 21:22N 41°34' W 070°16'514.2
2017-Oct-07 21:01N 41°39' W 070°17'0 0.1
2017-Oct-07 20:30N 41°39' W 070°17'4 2.0
2017-Oct-07 18:21N 41°35' W 070°17'412.7
2017-Oct-07 18:00N 41°39' W 070°17'0 0.1
2017-Oct-07 17:30N 41°39' W 070°17'5 2.3
2017-Oct-07 15:26N 41°34' W 070°17'511.3
2017-Oct-07 15:01N 41°39' W 070°17'1 1.0
2017-Oct-07 14:31N 41°39' W 070°16'5 2.6
2017-Oct-07 12:38N 41°34' W 070°16'428.1
2017-Oct-07 12:31N 41°37' W 070°17'2 3.2
2017-Oct-07 12:00N 41°39' W 070°17'  
2017-Oct-05 02:27N 41°39' W 070°17'0 0.0
2017-Oct-05 02:00N 41°39' W 070°17'  

Dump ship's entire track history